createdAt,value
2022-10-07T00:00:10.288Z,0.00
2022-10-07T00:01:10.300Z,0.00
2022-10-07T00:02:10.299Z,0.00
2022-10-07T00:03:10.106Z,0.00
2022-10-07T00:04:10.044Z,0.00
2022-10-07T00:05:10.039Z,0.00
2022-10-07T00:06:09.960Z,0.00
2022-10-07T00:07:09.882Z,0.00
2022-10-07T00:08:09.833Z,0.00
2022-10-07T00:09:09.766Z,0.00
2022-10-07T00:10:09.779Z,0.00
2022-10-07T00:11:09.703Z,0.00
2022-10-07T00:12:09.600Z,0.00
2022-10-07T00:13:09.561Z,0.00
2022-10-07T00:14:09.490Z,0.00
2022-10-07T00:15:09.458Z,0.00
2022-10-07T00:16:09.559Z,0.00
2022-10-07T00:17:09.342Z,0.00
2022-10-07T00:18:09.289Z,0.00
2022-10-07T00:19:09.211Z,0.00
2022-10-07T00:20:09.169Z,0.00
2022-10-07T00:21:09.185Z,0.00
2022-10-07T00:22:09.100Z,0.00
2022-10-07T00:23:08.989Z,0.00
2022-10-07T00:24:08.952Z,0.00
2022-10-07T00:25:08.892Z,0.00
2022-10-07T00:26:08.855Z,0.00
2022-10-07T00:27:08.812Z,0.00
2022-10-07T00:28:08.736Z,0.00
2022-10-07T00:29:08.677Z,0.00
2022-10-07T00:30:08.603Z,0.00
2022-10-07T00:31:08.613Z,0.00
2022-10-07T00:32:08.509Z,0.00
2022-10-07T00:33:08.491Z,0.00
2022-10-07T00:34:08.396Z,0.00
2022-10-07T00:35:08.325Z,0.00
2022-10-07T00:36:08.302Z,0.00
2022-10-07T00:37:08.231Z,0.00
2022-10-07T00:38:08.214Z,0.00
2022-10-07T00:39:08.144Z,0.00
2022-10-07T00:40:08.065Z,0.00
2022-10-07T00:41:08.012Z,0.00
2022-10-07T00:42:07.958Z,0.00
2022-10-07T00:43:07.898Z,0.00
2022-10-07T00:44:07.874Z,0.00
2022-10-07T00:45:07.784Z,0.00
2022-10-07T00:46:07.811Z,0.00
2022-10-07T00:47:07.672Z,0.00
2022-10-07T00:48:07.605Z,0.00
2022-10-07T00:49:07.596Z,0.00
2022-10-07T00:50:07.516Z,0.00
2022-10-07T00:51:07.455Z,0.00
2022-10-07T00:52:07.393Z,0.00
2022-10-07T00:53:07.330Z,0.00
2022-10-07T00:54:07.338Z,0.00
2022-10-07T00:55:07.273Z,0.00
2022-10-07T00:56:07.208Z,0.00
2022-10-07T00:57:07.119Z,0.00
2022-10-07T00:58:07.046Z,0.00
2022-10-07T00:59:06.995Z,0.00
2022-10-07T01:00:06.998Z,0.00
2022-10-07T01:01:06.988Z,0.00
2022-10-07T01:02:06.903Z,0.00
2022-10-07T01:03:06.796Z,0.00
2022-10-07T01:04:06.708Z,0.00
2022-10-07T01:05:06.663Z,0.00
2022-10-07T01:06:06.667Z,0.00
2022-10-07T01:07:06.576Z,0.00
2022-10-07T01:08:06.515Z,0.00
2022-10-07T01:09:06.454Z,0.00
2022-10-07T01:10:06.394Z,0.00
2022-10-07T01:11:06.342Z,0.00
2022-10-07T01:12:06.319Z,0.00
2022-10-07T01:13:06.224Z,0.00
2022-10-07T01:14:06.153Z,0.00
2022-10-07T01:15:06.117Z,0.00
2022-10-07T01:16:06.052Z,0.00
2022-10-07T01:17:06.072Z,0.00
2022-10-07T01:18:05.965Z,0.00
2022-10-07T01:19:05.888Z,0.00
2022-10-07T01:20:05.846Z,0.00
2022-10-07T01:21:05.787Z,0.00
2022-10-07T01:22:05.762Z,0.00
2022-10-07T01:23:05.676Z,0.00
2022-10-07T01:24:05.600Z,0.00
2022-10-07T01:25:05.563Z,0.00
2022-10-07T01:26:05.479Z,0.00
2022-10-07T01:27:05.478Z,0.00
2022-10-07T01:28:05.426Z,0.00
2022-10-07T01:29:05.322Z,0.00
2022-10-07T01:30:05.277Z,0.00
2022-10-07T01:31:05.320Z,0.00
2022-10-07T01:32:05.191Z,0.00
2022-10-07T01:33:05.117Z,0.00
2022-10-07T01:34:05.079Z,0.00
2022-10-07T01:35:04.993Z,0.00
2022-10-07T01:36:04.942Z,0.00
2022-10-07T01:37:04.907Z,0.00
2022-10-07T01:38:04.865Z,0.00
2022-10-07T01:39:04.788Z,0.00
2022-10-07T01:40:04.722Z,0.00
2022-10-07T01:41:04.691Z,0.00
2022-10-07T01:42:04.607Z,0.00
2022-10-07T01:43:04.597Z,0.00
2022-10-07T01:44:04.514Z,0.00
2022-10-07T01:45:04.464Z,0.00
2022-10-07T01:46:04.440Z,0.00
2022-10-07T01:47:04.344Z,0.00
2022-10-07T01:48:04.317Z,0.00
2022-10-07T01:49:04.227Z,0.00
2022-10-07T01:50:04.156Z,0.00
2022-10-07T01:51:04.123Z,0.00
2022-10-07T01:52:04.058Z,0.00
2022-10-07T01:53:03.995Z,0.00
2022-10-07T01:54:03.998Z,0.00
2022-10-07T01:55:03.958Z,0.00
2022-10-07T01:56:03.844Z,0.00
2022-10-07T01:57:03.782Z,0.00
2022-10-07T01:58:03.694Z,0.00
2022-10-07T01:59:03.650Z,0.00
2022-10-07T02:00:03.639Z,0.00
2022-10-07T02:01:03.606Z,0.00
2022-10-07T02:02:03.506Z,0.00
2022-10-07T02:03:03.434Z,0.00
2022-10-07T02:04:03.423Z,0.00
2022-10-07T02:05:03.340Z,0.00
2022-10-07T02:06:03.310Z,0.00
2022-10-07T02:07:03.220Z,0.00
2022-10-07T02:08:03.147Z,0.00
2022-10-07T02:09:03.099Z,0.00
2022-10-07T02:10:03.067Z,0.00
2022-10-07T02:11:03.028Z,0.00
2022-10-07T02:12:02.930Z,0.00
2022-10-07T02:13:02.896Z,0.00
2022-10-07T02:14:02.820Z,0.00
2022-10-07T02:15:02.759Z,0.00
2022-10-07T02:16:02.816Z,0.00
2022-10-07T02:17:02.688Z,0.00
2022-10-07T02:18:02.597Z,0.00
2022-10-07T02:19:02.539Z,0.00
2022-10-07T02:20:02.495Z,0.00
2022-10-07T02:21:02.432Z,0.00
2022-10-07T02:22:02.417Z,0.00
2022-10-07T02:23:02.324Z,0.00
2022-10-07T02:24:02.270Z,0.00
2022-10-07T02:25:02.212Z,0.00
2022-10-07T02:26:02.158Z,0.00
2022-10-07T02:27:02.138Z,0.00
2022-10-07T02:28:02.077Z,0.00
2022-10-07T02:29:01.988Z,0.00
2022-10-07T02:30:01.951Z,0.00
2022-10-07T02:31:01.942Z,0.00
2022-10-07T02:32:01.803Z,0.00
2022-10-07T02:33:01.805Z,0.00
2022-10-07T02:34:01.709Z,0.00
2022-10-07T02:35:01.649Z,0.00
2022-10-07T02:36:01.579Z,0.00
2022-10-07T02:37:01.540Z,0.00
2022-10-07T02:38:01.473Z,0.00
2022-10-07T02:39:01.465Z,0.00
2022-10-07T02:40:01.369Z,0.00
2022-10-07T02:41:01.292Z,0.00
2022-10-07T02:42:01.259Z,0.00
2022-10-07T02:43:01.191Z,0.00
2022-10-07T02:44:01.127Z,0.00
2022-10-07T02:45:01.130Z,0.00
2022-10-07T02:46:01.075Z,0.00
2022-10-07T02:47:00.954Z,0.00
2022-10-07T02:48:00.922Z,0.00
2022-10-07T02:49:00.847Z,0.00
2022-10-07T02:50:00.855Z,0.00
2022-10-07T02:51:00.755Z,0.00
2022-10-07T02:52:00.678Z,0.00
2022-10-07T02:53:00.646Z,0.00
2022-10-07T02:54:00.586Z,0.00
2022-10-07T02:55:00.540Z,0.00
2022-10-07T02:56:00.504Z,0.00
2022-10-07T02:57:00.405Z,0.00
2022-10-07T02:58:00.374Z,0.00
2022-10-07T02:59:00.290Z,0.00
2022-10-07T03:00:00.248Z,0.00
2022-10-07T03:01:00.227Z,0.00
2022-10-07T03:02:00.211Z,0.00
2022-10-07T03:03:00.059Z,0.00
2022-10-07T03:04:00.097Z,0.00
2022-10-07T03:04:59.978Z,0.00
2022-10-07T03:05:59.917Z,0.00
2022-10-07T03:06:59.853Z,0.00
2022-10-07T03:07:59.779Z,0.00
2022-10-07T03:08:59.726Z,0.00
2022-10-07T03:09:59.669Z,0.00
2022-10-07T03:10:59.636Z,0.00
2022-10-07T03:11:59.576Z,0.00
2022-10-07T03:12:59.527Z,0.00
2022-10-07T03:13:59.442Z,0.00
2022-10-07T03:14:59.392Z,0.00
2022-10-07T03:15:59.428Z,0.00
2022-10-07T03:16:59.289Z,0.00
2022-10-07T03:17:59.328Z,0.00
2022-10-07T03:18:59.167Z,0.00
2022-10-07T03:19:59.110Z,0.00
2022-10-07T03:20:59.044Z,0.00
2022-10-07T03:21:59.040Z,0.00
2022-10-07T03:22:58.959Z,0.00
2022-10-07T03:23:58.868Z,0.00
2022-10-07T03:24:58.839Z,0.00
2022-10-07T03:25:58.789Z,0.00
2022-10-07T03:26:58.727Z,0.00
2022-10-07T03:27:58.718Z,0.00
2022-10-07T03:28:58.607Z,0.00
2022-10-07T03:29:58.561Z,0.00
2022-10-07T03:30:58.529Z,0.00
2022-10-07T03:31:58.425Z,0.00
2022-10-07T03:32:58.427Z,0.00
2022-10-07T03:33:58.329Z,0.00
2022-10-07T03:34:58.262Z,0.00
2022-10-07T03:35:58.198Z,0.00
2022-10-07T03:36:58.152Z,0.00
2022-10-07T03:37:58.145Z,0.00
2022-10-07T03:38:58.048Z,0.00
2022-10-07T03:39:57.998Z,0.00
2022-10-07T03:40:57.938Z,0.00
2022-10-07T03:41:57.930Z,0.00
2022-10-07T03:42:57.879Z,0.00
2022-10-07T03:43:57.790Z,0.00
2022-10-07T03:44:57.696Z,0.00
2022-10-07T03:45:57.665Z,0.00
2022-10-07T03:46:57.634Z,0.00
2022-10-07T03:47:57.546Z,0.00
2022-10-07T03:48:57.484Z,0.00
2022-10-07T03:49:57.604Z,0.00
2022-10-07T03:50:57.372Z,0.00
2022-10-07T03:51:57.303Z,0.00
2022-10-07T03:52:57.267Z,0.00
2022-10-07T03:53:57.210Z,0.00
2022-10-07T03:54:57.177Z,0.00
2022-10-07T03:55:57.068Z,0.00
2022-10-07T03:56:57.031Z,0.00
2022-10-07T03:57:59.465Z,0.00
2022-10-07T03:58:56.926Z,0.00
2022-10-07T03:59:56.851Z,0.00
2022-10-07T04:00:56.825Z,0.00
2022-10-07T04:01:56.798Z,0.00
2022-10-07T04:02:56.785Z,0.00
2022-10-07T04:03:56.663Z,0.00
2022-10-07T04:04:56.573Z,0.00
2022-10-07T04:05:56.568Z,0.00
2022-10-07T04:06:56.451Z,0.00
2022-10-07T04:07:56.401Z,0.00
2022-10-07T04:08:56.346Z,0.00
2022-10-07T04:09:56.307Z,0.00
2022-10-07T04:10:56.243Z,0.00
2022-10-07T04:11:56.216Z,0.00
2022-10-07T04:12:56.121Z,0.00
2022-10-07T04:13:56.057Z,0.00
2022-10-07T04:14:56.025Z,0.00
2022-10-07T04:15:55.996Z,0.00
2022-10-07T04:16:55.926Z,0.00
2022-10-07T04:17:56.026Z,0.00
2022-10-07T04:18:55.793Z,0.00
2022-10-07T04:19:55.728Z,0.00
2022-10-07T04:20:55.710Z,0.00
2022-10-07T04:21:55.749Z,0.00
2022-10-07T04:22:55.611Z,0.00
2022-10-07T04:23:55.503Z,0.00
2022-10-07T04:24:55.446Z,0.00
2022-10-07T04:25:55.390Z,0.00
2022-10-07T04:26:55.346Z,0.00
2022-10-07T04:27:55.318Z,0.00
2022-10-07T04:28:55.442Z,0.00
2022-10-07T04:29:55.169Z,0.00
2022-10-07T04:30:55.113Z,0.00
2022-10-07T04:31:55.173Z,0.00
2022-10-07T04:32:55.029Z,0.00
2022-10-07T04:33:54.930Z,0.00
2022-10-07T04:34:54.890Z,0.00
2022-10-07T04:35:54.835Z,0.00
2022-10-07T04:36:54.795Z,0.00
2022-10-07T04:37:54.758Z,0.00
2022-10-07T04:38:54.638Z,0.00
2022-10-07T04:40:00.667Z,0.00
2022-10-07T04:40:54.535Z,0.00
2022-10-07T04:41:54.494Z,0.00
2022-10-07T04:42:54.436Z,0.00
2022-10-07T04:43:57.826Z,0.00
2022-10-07T04:44:54.330Z,0.00
2022-10-07T04:45:54.242Z,0.00
2022-10-07T04:46:54.230Z,0.00
2022-10-07T04:47:54.130Z,0.00
2022-10-07T04:48:54.127Z,0.00
2022-10-07T04:49:54.089Z,0.00
2022-10-07T04:50:53.978Z,0.00
2022-10-07T04:51:53.926Z,0.00
2022-10-07T04:52:53.866Z,0.00
2022-10-07T04:53:56.691Z,0.00
2022-10-07T04:54:53.798Z,0.00
2022-10-07T04:55:53.721Z,0.00
2022-10-07T04:56:53.640Z,0.00
2022-10-07T04:57:53.617Z,0.00
2022-10-07T04:58:53.548Z,0.00
2022-10-07T04:59:53.571Z,0.00
2022-10-07T05:00:53.488Z,0.00
2022-10-07T05:01:53.453Z,0.00
2022-10-07T05:02:53.310Z,0.00
2022-10-07T05:03:53.241Z,0.00
2022-10-07T05:04:53.200Z,0.00
2022-10-07T05:05:53.188Z,0.00
2022-10-07T05:06:53.089Z,0.00
2022-10-07T05:07:53.034Z,0.00
2022-10-07T05:08:52.963Z,0.00
2022-10-07T05:09:52.940Z,0.00
2022-10-07T05:10:52.933Z,0.00
2022-10-07T05:11:52.837Z,0.00
2022-10-07T05:12:56.044Z,0.00
2022-10-07T05:13:52.703Z,0.00
2022-10-07T05:14:52.649Z,0.00
2022-10-07T05:15:52.619Z,0.00
2022-10-07T05:16:52.533Z,0.00
2022-10-07T05:17:52.456Z,0.00
2022-10-07T05:18:52.415Z,0.00
2022-10-07T05:19:52.352Z,0.00
2022-10-07T05:20:52.311Z,0.00
2022-10-07T05:21:52.274Z,0.00
2022-10-07T05:22:52.184Z,0.00
2022-10-07T05:23:52.119Z,0.00
2022-10-07T05:24:52.072Z,0.00
2022-10-07T05:25:52.028Z,0.00
2022-10-07T05:26:51.964Z,0.00
2022-10-07T05:27:51.972Z,0.00
2022-10-07T05:28:51.869Z,0.00
2022-10-07T05:29:51.799Z,0.00
2022-10-07T05:30:51.876Z,0.00
2022-10-07T05:31:51.771Z,0.00
2022-10-07T05:32:51.633Z,0.00
2022-10-07T05:33:51.628Z,0.00
2022-10-07T05:34:51.539Z,0.00
2022-10-07T05:35:51.486Z,0.00
2022-10-07T05:36:51.428Z,0.00
2022-10-07T05:37:51.753Z,0.00
2022-10-07T05:38:51.272Z,0.00
2022-10-07T05:39:51.264Z,0.00
2022-10-07T05:40:51.165Z,0.00
2022-10-07T05:41:51.138Z,0.00
2022-10-07T05:42:51.069Z,0.00
2022-10-07T05:43:51.028Z,0.00
2022-10-07T05:44:51.007Z,0.00
2022-10-07T05:45:51.049Z,0.00
2022-10-07T05:46:50.859Z,0.00
2022-10-07T05:47:50.777Z,0.00
2022-10-07T05:48:50.755Z,0.00
2022-10-07T05:49:50.718Z,0.00
2022-10-07T05:50:50.682Z,0.00
2022-10-07T05:51:50.579Z,0.00
2022-10-07T05:52:50.614Z,0.00
2022-10-07T05:53:50.477Z,0.00
2022-10-07T05:54:50.418Z,5.63
2022-10-07T05:55:50.373Z,5.63
2022-10-07T05:56:50.326Z,5.63
2022-10-07T05:57:50.234Z,5.63
2022-10-07T05:58:50.167Z,5.63
2022-10-07T05:59:50.128Z,11.25
2022-10-07T06:00:50.064Z,16.88
2022-10-07T06:01:50.120Z,16.88
2022-10-07T06:02:50.129Z,16.88
2022-10-07T06:03:49.920Z,16.88
2022-10-07T06:04:49.838Z,22.50
2022-10-07T06:05:49.806Z,22.50
2022-10-07T06:06:49.724Z,28.13
2022-10-07T06:07:49.714Z,33.75
2022-10-07T06:08:49.629Z,33.75
2022-10-07T06:09:49.561Z,45.00
2022-10-07T06:10:49.533Z,50.63
2022-10-07T06:11:49.468Z,50.63
2022-10-07T06:12:49.419Z,50.63
2022-10-07T06:13:49.391Z,56.25
2022-10-07T06:14:49.300Z,56.25
2022-10-07T06:15:49.261Z,56.25
2022-10-07T06:16:49.800Z,61.88
2022-10-07T06:17:49.528Z,67.50
2022-10-07T06:18:49.134Z,78.75
2022-10-07T06:19:49.042Z,84.38
2022-10-07T06:20:48.964Z,90.00
2022-10-07T06:21:48.915Z,90.00
2022-10-07T06:22:48.833Z,84.38
2022-10-07T06:23:48.800Z,84.38
2022-10-07T06:24:48.781Z,95.63
2022-10-07T06:25:48.697Z,90.00
2022-10-07T06:26:48.653Z,78.75
2022-10-07T06:27:53.736Z,84.38
2022-10-07T06:28:48.569Z,84.38
2022-10-07T06:29:48.479Z,90.00
2022-10-07T06:30:48.506Z,101.25
2022-10-07T06:31:48.383Z,112.50
2022-10-07T06:32:48.308Z,129.38
2022-10-07T06:33:48.306Z,129.38
2022-10-07T06:34:48.188Z,123.75
2022-10-07T06:35:48.144Z,118.13
2022-10-07T06:36:48.094Z,118.13
2022-10-07T06:37:48.321Z,118.13
2022-10-07T06:38:47.978Z,129.38
2022-10-07T06:39:47.929Z,123.75
2022-10-07T06:40:47.911Z,129.38
2022-10-07T06:41:47.879Z,140.63
2022-10-07T06:42:47.767Z,151.88
2022-10-07T06:43:47.687Z,146.25
2022-10-07T06:44:47.643Z,140.63
2022-10-07T06:45:47.613Z,129.38
2022-10-07T06:46:47.586Z,140.63
2022-10-07T06:47:48.223Z,163.13
2022-10-07T06:48:47.460Z,146.25
2022-10-07T06:49:47.376Z,163.13
2022-10-07T06:50:47.300Z,168.75
2022-10-07T06:51:47.263Z,163.13
2022-10-07T06:52:47.237Z,151.88
2022-10-07T06:53:47.130Z,163.13
2022-10-07T06:54:47.102Z,168.75
2022-10-07T06:55:47.038Z,174.38
2022-10-07T06:56:46.998Z,202.50
2022-10-07T06:57:46.945Z,202.50
2022-10-07T06:58:46.886Z,196.88
2022-10-07T06:59:46.833Z,208.13
2022-10-07T07:00:46.836Z,180.00
2022-10-07T07:01:46.790Z,180.00
2022-10-07T07:02:46.715Z,140.63
2022-10-07T07:03:46.856Z,140.63
2022-10-07T07:04:46.595Z,163.13
2022-10-07T07:05:47.854Z,1248.75
2022-10-07T07:06:46.435Z,1783.13
2022-10-07T07:07:46.738Z,759.38
2022-10-07T07:08:46.331Z,281.25
2022-10-07T07:09:46.316Z,343.13
2022-10-07T07:10:46.215Z,331.88
2022-10-07T07:11:46.170Z,365.63
2022-10-07T07:12:46.527Z,399.38
2022-10-07T07:13:46.176Z,461.25
2022-10-07T07:14:46.014Z,433.13
2022-10-07T07:15:45.983Z,1288.13
2022-10-07T07:16:45.988Z,2536.88
2022-10-07T07:17:46.039Z,2598.75
2022-10-07T07:18:45.786Z,1850.63
2022-10-07T07:19:45.747Z,2193.75
2022-10-07T07:20:45.694Z,866.25
2022-10-07T07:21:48.976Z,1366.88
2022-10-07T07:22:45.617Z,551.25
2022-10-07T07:23:45.596Z,669.38
2022-10-07T07:24:45.493Z,466.88
2022-10-07T07:25:45.505Z,275.63
2022-10-07T07:26:45.409Z,281.25
2022-10-07T07:27:45.685Z,360.00
2022-10-07T07:28:45.368Z,275.63
2022-10-07T07:29:45.267Z,438.75
2022-10-07T07:30:45.259Z,3757.50
2022-10-07T07:31:45.163Z,3678.75
2022-10-07T07:32:45.141Z,3875.63
2022-10-07T07:33:45.069Z,3757.50
2022-10-07T07:34:44.985Z,3217.50
2022-10-07T07:35:44.941Z,343.13
2022-10-07T07:36:44.890Z,298.13
2022-10-07T07:37:45.029Z,264.38
2022-10-07T07:38:44.839Z,286.88
2022-10-07T07:39:44.738Z,348.75
2022-10-07T07:40:44.700Z,1215.00
2022-10-07T07:41:44.643Z,3954.38
2022-10-07T07:42:44.612Z,3920.63
2022-10-07T07:43:44.550Z,3954.38
2022-10-07T07:44:44.530Z,4021.88
2022-10-07T07:45:44.512Z,4246.88
2022-10-07T07:46:44.435Z,4218.75
2022-10-07T07:47:44.741Z,4162.50
2022-10-07T07:48:44.800Z,3903.75
2022-10-07T07:49:44.365Z,804.38
2022-10-07T07:50:44.248Z,4280.63
2022-10-07T07:51:44.204Z,4066.88
2022-10-07T07:52:44.138Z,3830.63
2022-10-07T07:53:44.128Z,2266.88
2022-10-07T07:54:44.080Z,534.38
2022-10-07T07:55:44.064Z,399.38
2022-10-07T07:56:43.983Z,309.38
2022-10-07T07:57:44.305Z,326.25
2022-10-07T07:58:43.900Z,382.50
2022-10-07T07:59:43.859Z,466.88
2022-10-07T08:00:43.807Z,585.00
2022-10-07T08:01:43.805Z,540.00
2022-10-07T08:02:43.778Z,725.63
2022-10-07T08:03:43.669Z,900.00
2022-10-07T08:04:43.651Z,691.88
2022-10-07T08:05:43.585Z,568.13
2022-10-07T08:06:43.585Z,635.63
2022-10-07T08:07:43.895Z,2829.38
2022-10-07T08:08:43.456Z,1468.13
2022-10-07T08:09:43.470Z,3937.50
2022-10-07T08:10:43.356Z,1305.00
2022-10-07T08:11:43.341Z,663.75
2022-10-07T08:12:43.308Z,601.88
2022-10-07T08:13:43.236Z,579.38
2022-10-07T08:14:43.179Z,573.75
2022-10-07T08:15:43.165Z,956.25
2022-10-07T08:16:43.101Z,1164.38
2022-10-07T08:17:43.478Z,3566.25
2022-10-07T08:18:43.023Z,1361.25
2022-10-07T08:19:42.962Z,4224.38
2022-10-07T08:20:42.923Z,3774.38
2022-10-07T08:21:42.864Z,1299.38
2022-10-07T08:22:42.896Z,2896.88
2022-10-07T08:23:42.788Z,4533.75
2022-10-07T08:24:42.763Z,4297.50
2022-10-07T08:25:42.702Z,4336.88
2022-10-07T08:26:42.638Z,4348.13
2022-10-07T08:27:43.041Z,4291.88
2022-10-07T08:28:42.548Z,4140.00
2022-10-07T08:29:42.593Z,3841.88
2022-10-07T08:30:42.534Z,3791.25
2022-10-07T08:31:42.500Z,3841.88
2022-10-07T08:32:42.410Z,4044.38
2022-10-07T08:33:42.877Z,4140.00
2022-10-07T08:34:42.322Z,3881.25
2022-10-07T08:35:42.315Z,3206.25
2022-10-07T08:36:42.240Z,2199.38
2022-10-07T08:37:42.224Z,1231.88
2022-10-07T08:38:42.149Z,759.38
2022-10-07T08:39:42.110Z,708.75
2022-10-07T08:40:42.066Z,675.00
2022-10-07T08:41:42.053Z,646.88
2022-10-07T08:42:42.002Z,624.38
2022-10-07T08:43:41.966Z,607.50
2022-10-07T08:44:41.927Z,590.63
2022-10-07T08:45:41.911Z,585.00
2022-10-07T08:46:41.854Z,579.38
2022-10-07T08:47:41.809Z,573.75
2022-10-07T08:48:41.780Z,568.13
2022-10-07T08:49:41.723Z,573.75
2022-10-07T08:50:41.705Z,556.88
2022-10-07T08:51:41.680Z,551.25
2022-10-07T08:52:41.623Z,540.00
2022-10-07T08:53:41.579Z,545.63
2022-10-07T08:54:41.560Z,540.00
2022-10-07T08:55:41.495Z,540.00
2022-10-07T08:56:41.500Z,540.00
2022-10-07T08:57:41.488Z,545.63
2022-10-07T08:58:41.400Z,540.00
2022-10-07T08:59:41.361Z,540.00
2022-10-07T09:00:41.322Z,551.25
2022-10-07T09:01:41.388Z,551.25
2022-10-07T09:02:41.312Z,556.88
2022-10-07T09:03:41.187Z,556.88
2022-10-07T09:04:41.165Z,551.25
2022-10-07T09:05:41.124Z,545.63
2022-10-07T09:06:41.095Z,545.63
2022-10-07T09:07:41.087Z,545.63
2022-10-07T09:08:41.024Z,545.63
2022-10-07T09:09:40.980Z,545.63
2022-10-07T09:10:40.934Z,551.25
2022-10-07T09:11:40.912Z,551.25
2022-10-07T09:12:40.892Z,545.63
2022-10-07T09:13:40.827Z,545.63
2022-10-07T09:14:40.770Z,545.63
2022-10-07T09:15:40.738Z,545.63
2022-10-07T09:16:40.702Z,540.00
2022-10-07T09:17:40.647Z,506.25
2022-10-07T09:18:40.643Z,534.38
2022-10-07T09:19:40.576Z,540.00
2022-10-07T09:20:40.531Z,545.63
2022-10-07T09:21:40.498Z,545.63
2022-10-07T09:22:40.460Z,540.00
2022-10-07T09:23:40.435Z,540.00
2022-10-07T09:24:40.425Z,540.00
2022-10-07T09:25:40.341Z,540.00
2022-10-07T09:26:40.324Z,500.63
2022-10-07T09:27:40.257Z,534.38
2022-10-07T09:28:40.316Z,528.75
2022-10-07T09:29:40.179Z,528.75
2022-10-07T09:30:40.147Z,551.25
2022-10-07T09:31:40.113Z,517.50
2022-10-07T09:32:40.055Z,540.00
2022-10-07T09:33:40.037Z,568.13
2022-10-07T09:34:40.030Z,562.50
2022-10-07T09:35:39.953Z,573.75
2022-10-07T09:36:39.958Z,573.75
2022-10-07T09:37:39.854Z,573.75
2022-10-07T09:38:39.843Z,495.00
2022-10-07T09:39:39.791Z,568.13
2022-10-07T09:40:39.788Z,562.50
2022-10-07T09:41:39.695Z,556.88
2022-10-07T09:42:39.655Z,551.25
2022-10-07T09:43:39.656Z,545.63
2022-10-07T09:44:39.586Z,511.88
2022-10-07T09:45:39.553Z,500.63
2022-10-07T09:46:39.618Z,500.63
2022-10-07T09:47:39.489Z,506.25
2022-10-07T09:48:39.423Z,523.13
2022-10-07T09:49:39.384Z,528.75
2022-10-07T09:50:39.328Z,517.50
2022-10-07T09:51:39.315Z,517.50
2022-10-07T09:52:39.282Z,511.88
2022-10-07T09:53:39.245Z,506.25
2022-10-07T09:54:39.192Z,500.63
2022-10-07T09:55:39.154Z,483.75
2022-10-07T09:56:39.096Z,478.13
2022-10-07T09:57:39.075Z,472.50
2022-10-07T09:58:39.008Z,472.50
2022-10-07T09:59:38.942Z,461.25
2022-10-07T10:00:38.920Z,461.25
2022-10-07T10:01:38.954Z,450.00
2022-10-07T10:02:38.960Z,450.00
2022-10-07T10:03:38.945Z,444.38
2022-10-07T10:04:38.788Z,444.38
2022-10-07T10:05:38.713Z,444.38
2022-10-07T10:06:38.678Z,450.00
2022-10-07T10:07:38.624Z,399.38
2022-10-07T10:08:38.599Z,371.25
2022-10-07T10:09:38.572Z,365.63
2022-10-07T10:10:38.493Z,371.25
2022-10-07T10:11:38.467Z,292.50
2022-10-07T10:12:40.725Z,450.00
2022-10-07T10:13:38.395Z,461.25
2022-10-07T10:14:38.308Z,450.00
2022-10-07T10:15:38.318Z,405.00
2022-10-07T10:16:38.238Z,416.25
2022-10-07T10:17:38.178Z,410.63
2022-10-07T10:18:38.134Z,343.13
2022-10-07T10:19:38.082Z,399.38
2022-10-07T10:20:38.086Z,427.50
2022-10-07T10:21:38.015Z,478.13
2022-10-07T10:22:37.958Z,478.13
2022-10-07T10:23:37.913Z,478.13
2022-10-07T10:24:37.864Z,472.50
2022-10-07T10:25:37.846Z,320.63
2022-10-07T10:26:37.768Z,399.38
2022-10-07T10:27:37.740Z,354.38
2022-10-07T10:28:37.745Z,393.75
2022-10-07T10:29:37.650Z,405.00
2022-10-07T10:30:37.637Z,489.38
2022-10-07T10:31:37.619Z,483.75
2022-10-07T10:32:37.674Z,399.38
2022-10-07T10:33:37.457Z,388.13
2022-10-07T10:34:37.416Z,405.00
2022-10-07T10:35:37.406Z,444.38
2022-10-07T10:36:37.384Z,461.25
2022-10-07T10:37:37.294Z,438.75
2022-10-07T10:38:37.250Z,427.50
2022-10-07T10:39:37.210Z,405.00
2022-10-07T10:40:37.169Z,354.38
2022-10-07T10:41:37.153Z,461.25
2022-10-07T10:42:37.065Z,405.00
2022-10-07T10:43:37.062Z,382.50
2022-10-07T10:44:36.993Z,421.88
2022-10-07T10:45:36.961Z,455.63
2022-10-07T10:46:36.967Z,450.00
2022-10-07T10:47:36.881Z,455.63
2022-10-07T10:48:36.972Z,444.38
2022-10-07T10:49:36.767Z,455.63
2022-10-07T10:50:36.702Z,444.38
2022-10-07T10:51:36.707Z,444.38
2022-10-07T10:52:36.672Z,388.13
2022-10-07T10:53:36.634Z,427.50
2022-10-07T10:54:36.528Z,433.13
2022-10-07T10:55:36.539Z,427.50
2022-10-07T10:56:36.468Z,421.88
2022-10-07T10:57:36.409Z,410.63
2022-10-07T10:58:36.389Z,421.88
2022-10-07T10:59:36.410Z,410.63
2022-10-07T11:00:36.304Z,421.88
2022-10-07T11:01:36.308Z,410.63
2022-10-07T11:02:36.255Z,382.50
2022-10-07T11:03:36.200Z,399.38
2022-10-07T11:04:36.109Z,393.75
2022-10-07T11:05:36.070Z,388.13
2022-10-07T11:06:36.023Z,382.50
2022-10-07T11:07:36.006Z,365.63
2022-10-07T11:08:38.445Z,376.88
2022-10-07T11:09:35.920Z,376.88
2022-10-07T11:10:35.838Z,303.75
2022-10-07T11:11:35.808Z,371.25
2022-10-07T11:12:35.754Z,360.00
2022-10-07T11:13:35.696Z,376.88
2022-10-07T11:14:35.679Z,388.13
2022-10-07T11:15:35.601Z,382.50
2022-10-07T11:16:35.559Z,376.88
2022-10-07T11:17:35.521Z,371.25
2022-10-07T11:18:35.459Z,365.63
2022-10-07T11:19:35.457Z,360.00
2022-10-07T11:20:35.358Z,371.25
2022-10-07T11:21:35.338Z,371.25
2022-10-07T11:22:35.269Z,360.00
2022-10-07T11:23:35.240Z,309.38
2022-10-07T11:24:35.211Z,298.13
2022-10-07T11:25:35.180Z,354.38
2022-10-07T11:26:35.117Z,360.00
2022-10-07T11:27:35.066Z,360.00
2022-10-07T11:28:35.055Z,337.50
2022-10-07T11:29:34.990Z,331.88
2022-10-07T11:30:34.956Z,354.38
2022-10-07T11:31:34.927Z,382.50
2022-10-07T11:32:34.843Z,376.88
2022-10-07T11:33:34.786Z,382.50
2022-10-07T11:34:34.733Z,388.13
2022-10-07T11:35:34.733Z,382.50
2022-10-07T11:36:34.675Z,376.88
2022-10-07T11:37:34.585Z,371.25
2022-10-07T11:38:34.565Z,371.25
2022-10-07T11:39:34.513Z,371.25
2022-10-07T11:40:34.499Z,371.25
2022-10-07T11:41:35.521Z,365.63
2022-10-07T11:42:34.377Z,360.00
2022-10-07T11:43:34.338Z,348.75
2022-10-07T11:44:34.287Z,292.50
2022-10-07T11:45:34.284Z,320.63
2022-10-07T11:46:34.259Z,315.00
2022-10-07T11:47:34.145Z,331.88
2022-10-07T11:48:34.159Z,320.63
2022-10-07T11:49:34.070Z,303.75
2022-10-07T11:50:34.029Z,286.88
2022-10-07T11:51:34.024Z,275.63
2022-10-07T11:52:38.173Z,275.63
2022-10-07T11:53:33.864Z,286.88
2022-10-07T11:54:33.841Z,292.50
2022-10-07T11:55:33.820Z,286.88
2022-10-07T11:56:33.767Z,275.63
2022-10-07T11:57:33.735Z,275.63
2022-10-07T11:58:33.653Z,270.00
2022-10-07T11:59:33.610Z,275.63
2022-10-07T12:00:33.555Z,286.88
2022-10-07T12:01:33.611Z,286.88
2022-10-07T12:02:33.524Z,286.88
2022-10-07T12:03:33.643Z,292.50
2022-10-07T12:04:33.369Z,292.50
2022-10-07T12:05:33.338Z,298.13
2022-10-07T12:06:33.292Z,298.13
2022-10-07T12:07:33.247Z,303.75
2022-10-07T12:08:33.223Z,281.25
2022-10-07T12:09:33.206Z,309.38
2022-10-07T12:10:33.123Z,309.38
2022-10-07T12:11:33.084Z,309.38
2022-10-07T12:12:33.033Z,298.13
2022-10-07T12:13:32.975Z,292.50
2022-10-07T12:14:32.943Z,309.38
2022-10-07T12:15:32.927Z,309.38
2022-10-07T12:16:32.968Z,309.38
2022-10-07T12:17:32.804Z,303.75
2022-10-07T12:18:32.738Z,298.13
2022-10-07T12:19:32.695Z,298.13
2022-10-07T12:20:32.658Z,292.50
2022-10-07T12:21:32.633Z,286.88
2022-10-07T12:22:32.559Z,292.50
2022-10-07T12:23:32.500Z,292.50
2022-10-07T12:24:32.465Z,292.50
2022-10-07T12:25:32.695Z,292.50
2022-10-07T12:26:32.477Z,292.50
2022-10-07T12:27:32.361Z,292.50
2022-10-07T12:28:32.360Z,286.88
2022-10-07T12:29:32.249Z,286.88
2022-10-07T12:30:32.193Z,281.25
2022-10-07T12:31:32.225Z,292.50
2022-10-07T12:32:32.195Z,292.50
2022-10-07T12:33:32.071Z,292.50
2022-10-07T12:34:32.018Z,281.25
2022-10-07T12:35:31.967Z,281.25
2022-10-07T12:36:31.927Z,264.38
2022-10-07T12:37:31.881Z,253.13
2022-10-07T12:38:31.874Z,253.13
2022-10-07T12:39:31.773Z,247.50
2022-10-07T12:40:31.735Z,213.75
2022-10-07T12:41:32.925Z,247.50
2022-10-07T12:42:31.636Z,253.13
2022-10-07T12:43:31.602Z,253.13
2022-10-07T12:44:31.582Z,258.75
2022-10-07T12:45:31.584Z,253.13
2022-10-07T12:46:31.470Z,253.13
2022-10-07T12:47:31.409Z,247.50
2022-10-07T12:48:31.367Z,247.50
2022-10-07T12:49:31.310Z,247.50